sensor_id;sensor_type;location;lat;lon;timestamp;P1;durP1;ratioP1;P2;durP2;ratioP2
33987;SDS011;37428;53.580;-1.666;2023-05-29T00:03:00;18.00;;;4.00;;
33987;SDS011;37428;53.580;-1.666;2023-05-29T00:06:07;15.75;;;3.65;;
33987;SDS011;37428;53.580;-1.666;2023-05-29T00:09:24;23.40;;;4.22;;
33987;SDS011;37428;53.580;-1.666;2023-05-29T00:12:35;15.75;;;4.45;;
33987;SDS011;37428;53.580;-1.666;2023-05-29T00:19:33;13.48;;;3.83;;
33987;SDS011;37428;53.580;-1.666;2023-05-29T00:26:11;14.93;;;3.80;;
33987;SDS011;37428;53.580;-1.666;2023-05-29T00:29:22;13.32;;;3.83;;
33987;SDS011;37428;53.580;-1.666;2023-05-29T00:32:46;11.23;;;3.38;;
33987;SDS011;37428;53.580;-1.666;2023-05-29T00:35:48;21.83;;;4.28;;
33987;SDS011;37428;53.580;-1.666;2023-05-29T00:39:04;22.98;;;4.32;;
33987;SDS011;37428;53.580;-1.666;2023-05-29T00:42:06;16.45;;;3.75;;
33987;SDS011;37428;53.580;-1.666;2023-05-29T00:45:10;14.85;;;3.63;;
33987;SDS011;37428;53.580;-1.666;2023-05-29T00:48:42;17.90;;;4.18;;
33987;SDS011;37428;53.580;-1.666;2023-05-29T00:51:46;18.38;;;4.03;;
33987;SDS011;37428;53.580;-1.666;2023-05-29T00:54:55;20.83;;;4.13;;
33987;SDS011;37428;53.580;-1.666;2023-05-29T00:58:06;19.73;;;3.88;;
33987;SDS011;37428;53.580;-1.666;2023-05-29T01:01:53;14.60;;;4.05;;
33987;SDS011;37428;53.580;-1.666;2023-05-29T01:04:55;16.00;;;4.32;;
33987;SDS011;37428;53.580;-1.666;2023-05-29T01:08:05;18.13;;;3.85;;
33987;SDS011;37428;53.580;-1.666;2023-05-29T01:11:31;12.18;;;4.07;;
33987;SDS011;37428;53.580;-1.666;2023-05-29T01:15:09;21.10;;;4.68;;
33987;SDS011;37428;53.580;-1.666;2023-05-29T01:18:54;18.88;;;4.32;;
33987;SDS011;37428;53.580;-1.666;2023-05-29T01:22:17;10.98;;;3.53;;
33987;SDS011;37428;53.580;-1.666;2023-05-29T01:25:50;14.80;;;5.25;;
33987;SDS011;37428;53.580;-1.666;2023-05-29T01:29:18;17.85;;;4.70;;
33987;SDS011;37428;53.580;-1.666;2023-05-29T01:32:31;15.55;;;4.72;;
33987;SDS011;37428;53.580;-1.666;2023-05-29T01:35:38;18.58;;;4.55;;
33987;SDS011;37428;53.580;-1.666;2023-05-29T01:38:54;19.15;;;4.72;;
33987;SDS011;37428;53.580;-1.666;2023-05-29T01:42:02;22.67;;;4.80;;
33987;SDS011;37428;53.580;-1.666;2023-05-29T01:45:09;22.00;;;4.60;;
33987;SDS011;37428;53.580;-1.666;2023-05-29T01:51:41;22.88;;;5.28;;
33987;SDS011;37428;53.580;-1.666;2023-05-29T01:54:45;24.23;;;6.93;;
33987;SDS011;37428;53.580;-1.666;2023-05-29T01:58:08;17.80;;;5.07;;
33987;SDS011;37428;53.580;-1.666;2023-05-29T02:01:16;14.88;;;6.07;;
33987;SDS011;37428;53.580;-1.666;2023-05-29T02:05:59;15.30;;;4.90;;
33987;SDS011;37428;53.580;-1.666;2023-05-29T02:08:25;20.75;;;5.78;;
33987;SDS011;37428;53.580;-1.666;2023-05-29T02:11:18;19.13;;;5.68;;
33987;SDS011;37428;53.580;-1.666;2023-05-29T02:14:59;13.30;;;4.85;;
33987;SDS011;37428;53.580;-1.666;2023-05-29T02:21:29;16.48;;;4.97;;
33987;SDS011;37428;53.580;-1.666;2023-05-29T02:24:32;22.95;;;5.95;;
33987;SDS011;37428;53.580;-1.666;2023-05-29T02:27:34;18.95;;;5.72;;
33987;SDS011;37428;53.580;-1.666;2023-05-29T02:30:43;22.65;;;5.65;;
33987;SDS011;37428;53.580;-1.666;2023-05-29T02:33:53;22.20;;;5.88;;
33987;SDS011;37428;53.580;-1.666;2023-05-29T02:37:07;20.95;;;5.57;;
33987;SDS011;37428;53.580;-1.666;2023-05-29T02:40:21;15.70;;;5.68;;
33987;SDS011;37428;53.580;-1.666;2023-05-29T02:43:37;20.42;;;5.72;;
33987;SDS011;37428;53.580;-1.666;2023-05-29T02:47:10;22.80;;;5.78;;
33987;SDS011;37428;53.580;-1.666;2023-05-29T02:57:42;17.73;;;5.10;;
33987;SDS011;37428;53.580;-1.666;2023-05-29T03:01:05;20.65;;;4.85;;
33987;SDS011;37428;53.580;-1.666;2023-05-29T03:06:10;19.95;;;4.40;;
33987;SDS011;37428;53.580;-1.666;2023-05-29T03:09:49;17.02;;;4.13;;
33987;SDS011;37428;53.580;-1.666;2023-05-29T03:11:15;16.08;;;4.95;;
33987;SDS011;37428;53.580;-1.666;2023-05-29T03:14:23;19.90;;;4.97;;
33987;SDS011;37428;53.580;-1.666;2023-05-29T03:17:44;15.32;;;5.25;;
33987;SDS011;37428;53.580;-1.666;2023-05-29T03:21:11;20.80;;;5.65;;
33987;SDS011;37428;53.580;-1.666;2023-05-29T03:24:36;18.00;;;5.00;;
33987;SDS011;37428;53.580;-1.666;2023-05-29T03:27:38;21.20;;;4.75;;
33987;SDS011;37428;53.580;-1.666;2023-05-29T03:30:46;23.27;;;5.43;;
33987;SDS011;37428;53.580;-1.666;2023-05-29T03:34:39;14.00;;;5.05;;
33987;SDS011;37428;53.580;-1.666;2023-05-29T03:37:57;22.20;;;6.45;;
33987;SDS011;37428;53.580;-1.666;2023-05-29T03:41:06;16.60;;;5.32;;
33987;SDS011;37428;53.580;-1.666;2023-05-29T03:44:10;23.45;;;6.00;;
33987;SDS011;37428;53.580;-1.666;2023-05-29T03:47:22;17.23;;;5.30;;
33987;SDS011;37428;53.580;-1.666;2023-05-29T03:50:35;16.58;;;4.20;;
33987;SDS011;37428;53.580;-1.666;2023-05-29T03:53:54;18.08;;;4.80;;
33987;SDS011;37428;53.580;-1.666;2023-05-29T03:57:09;13.73;;;4.07;;
33987;SDS011;37428;53.580;-1.666;2023-05-29T04:00:13;15.43;;;4.22;;
33987;SDS011;37428;53.580;-1.666;2023-05-29T04:03:44;17.02;;;4.63;;
33987;SDS011;37428;53.580;-1.666;2023-05-29T04:07:18;13.10;;;3.53;;
33987;SDS011;37428;53.580;-1.666;2023-05-29T04:10:29;12.50;;;4.10;;
33987;SDS011;37428;53.580;-1.666;2023-05-29T04:13:34;11.85;;;3.78;;
33987;SDS011;37428;53.580;-1.666;2023-05-29T04:16:58;12.70;;;3.97;;
33987;SDS011;37428;53.580;-1.666;2023-05-29T04:23:44;16.42;;;4.47;;
33987;SDS011;37428;53.580;-1.666;2023-05-29T04:27:17;16.75;;;3.95;;
33987;SDS011;37428;53.580;-1.666;2023-05-29T04:30:27;18.00;;;4.07;;
33987;SDS011;37428;53.580;-1.666;2023-05-29T04:33:45;15.77;;;4.32;;
33987;SDS011;37428;53.580;-1.666;2023-05-29T04:36:58;11.80;;;3.95;;
33987;SDS011;37428;53.580;-1.666;2023-05-29T04:40:27;12.00;;;3.90;;
33987;SDS011;37428;53.580;-1.666;2023-05-29T04:43:45;12.02;;;4.15;;
33987;SDS011;37428;53.580;-1.666;2023-05-29T04:46:51;15.63;;;3.20;;
33987;SDS011;37428;53.580;-1.666;2023-05-29T04:50:19;11.13;;;3.60;;
33987;SDS011;37428;53.580;-1.666;2023-05-29T04:53:32;11.55;;;3.78;;
33987;SDS011;37428;53.580;-1.666;2023-05-29T04:56:42;17.40;;;4.43;;
33987;SDS011;37428;53.580;-1.666;2023-05-29T04:59:52;14.98;;;4.45;;
33987;SDS011;37428;53.580;-1.666;2023-05-29T05:03:25;12.63;;;3.30;;
33987;SDS011;37428;53.580;-1.666;2023-05-29T05:06:32;16.13;;;3.60;;
33987;SDS011;37428;53.580;-1.666;2023-05-29T05:13:12;15.85;;;4.35;;
33987;SDS011;37428;53.580;-1.666;2023-05-29T05:16:14;13.15;;;3.58;;
33987;SDS011;37428;53.580;-1.666;2023-05-29T05:19:31;13.18;;;3.78;;
33987;SDS011;37428;53.580;-1.666;2023-05-29T05:22:35;14.00;;;3.65;;
33987;SDS011;37428;53.580;-1.666;2023-05-29T05:29:02;18.25;;;4.30;;
33987;SDS011;37428;53.580;-1.666;2023-05-29T05:32:10;13.20;;;3.28;;
33987;SDS011;37428;53.580;-1.666;2023-05-29T05:35:36;15.13;;;3.58;;
33987;SDS011;37428;53.580;-1.666;2023-05-29T05:39:28;9.70;;;3.30;;
33987;SDS011;37428;53.580;-1.666;2023-05-29T05:46:17;9.93;;;3.33;;
33987;SDS011;37428;53.580;-1.666;2023-05-29T05:49:35;10.10;;;3.92;;
33987;SDS011;37428;53.580;-1.666;2023-05-29T05:52:43;13.50;;;3.70;;
33987;SDS011;37428;53.580;-1.666;2023-05-29T05:59:21;13.15;;;4.05;;
33987;SDS011;37428;53.580;-1.666;2023-05-29T06:02:37;11.35;;;3.60;;
33987;SDS011;37428;53.580;-1.666;2023-05-29T06:05:42;12.13;;;3.10;;
33987;SDS011;37428;53.580;-1.666;2023-05-29T06:08:56;15.07;;;3.50;;
33987;SDS011;37428;53.580;-1.666;2023-05-29T06:12:07;10.52;;;3.75;;
33987;SDS011;37428;53.580;-1.666;2023-05-29T06:15:14;11.60;;;2.83;;
33987;SDS011;37428;53.580;-1.666;2023-05-29T06:18:22;11.27;;;2.97;;
33987;SDS011;37428;53.580;-1.666;2023-05-29T06:21:40;18.75;;;3.35;;
33987;SDS011;37428;53.580;-1.666;2023-05-29T06:24:44;13.77;;;3.20;;
33987;SDS011;37428;53.580;-1.666;2023-05-29T06:27:52;9.15;;;3.00;;
33987;SDS011;37428;53.580;-1.666;2023-05-29T06:30:59;12.98;;;3.28;;
33987;SDS011;37428;53.580;-1.666;2023-05-29T06:34:01;10.88;;;3.75;;
33987;SDS011;37428;53.580;-1.666;2023-05-29T06:37:07;14.43;;;3.30;;
33987;SDS011;37428;53.580;-1.666;2023-05-29T06:40:10;10.55;;;2.78;;
33987;SDS011;37428;53.580;-1.666;2023-05-29T06:43:19;10.98;;;2.72;;
33987;SDS011;37428;53.580;-1.666;2023-05-29T06:46:27;12.02;;;3.75;;
33987;SDS011;37428;53.580;-1.666;2023-05-29T06:49:29;11.13;;;3.50;;
33987;SDS011;37428;53.580;-1.666;2023-05-29T06:52:31;16.55;;;2.97;;
33987;SDS011;37428;53.580;-1.666;2023-05-29T06:55:33;10.32;;;3.03;;
33987;SDS011;37428;53.580;-1.666;2023-05-29T06:58:59;11.45;;;3.92;;
33987;SDS011;37428;53.580;-1.666;2023-05-29T07:02:12;10.13;;;2.83;;
33987;SDS011;37428;53.580;-1.666;2023-05-29T07:05:37;10.55;;;3.97;;
33987;SDS011;37428;53.580;-1.666;2023-05-29T07:08:40;9.20;;;2.65;;
33987;SDS011;37428;53.580;-1.666;2023-05-29T07:11:44;10.38;;;2.92;;
33987;SDS011;37428;53.580;-1.666;2023-05-29T07:14:46;10.57;;;3.20;;
33987;SDS011;37428;53.580;-1.666;2023-05-29T07:17:53;12.27;;;3.42;;
33987;SDS011;37428;53.580;-1.666;2023-05-29T07:21:01;15.30;;;4.15;;
33987;SDS011;37428;53.580;-1.666;2023-05-29T07:24:22;7.72;;;2.65;;
33987;SDS011;37428;53.580;-1.666;2023-05-29T07:27:24;9.80;;;3.60;;
33987;SDS011;37428;53.580;-1.666;2023-05-29T07:30:40;13.60;;;3.10;;
33987;SDS011;37428;53.580;-1.666;2023-05-29T07:33:55;9.25;;;2.92;;
33987;SDS011;37428;53.580;-1.666;2023-05-29T07:37:13;15.18;;;4.13;;
33987;SDS011;37428;53.580;-1.666;2023-05-29T07:40:30;10.75;;;3.83;;
33987;SDS011;37428;53.580;-1.666;2023-05-29T07:43:41;9.65;;;2.70;;
33987;SDS011;37428;53.580;-1.666;2023-05-29T07:46:54;8.07;;;3.05;;
33987;SDS011;37428;53.580;-1.666;2023-05-29T07:50:16;8.77;;;3.45;;
33987;SDS011;37428;53.580;-1.666;2023-05-29T07:53:18;10.13;;;3.05;;
33987;SDS011;37428;53.580;-1.666;2023-05-29T07:56:22;9.00;;;3.08;;
33987;SDS011;37428;53.580;-1.666;2023-05-29T07:59:41;10.48;;;2.50;;
33987;SDS011;37428;53.580;-1.666;2023-05-29T08:02:57;8.02;;;2.67;;
33987;SDS011;37428;53.580;-1.666;2023-05-29T08:06:05;9.88;;;2.67;;
33987;SDS011;37428;53.580;-1.666;2023-05-29T08:09:18;10.50;;;2.33;;
33987;SDS011;37428;53.580;-1.666;2023-05-29T08:12:22;8.32;;;2.42;;
33987;SDS011;37428;53.580;-1.666;2023-05-29T08:15:26;6.38;;;1.77;;
33987;SDS011;37428;53.580;-1.666;2023-05-29T08:18:31;9.10;;;2.35;;
33987;SDS011;37428;53.580;-1.666;2023-05-29T08:21:44;5.75;;;2.00;;
33987;SDS011;37428;53.580;-1.666;2023-05-29T08:25:15;11.10;;;2.50;;
33987;SDS011;37428;53.580;-1.666;2023-05-29T08:28:18;7.90;;;2.30;;
33987;SDS011;37428;53.580;-1.666;2023-05-29T08:31:21;11.70;;;2.22;;
33987;SDS011;37428;53.580;-1.666;2023-05-29T08:34:33;10.33;;;2.50;;
33987;SDS011;37428;53.580;-1.666;2023-05-29T08:50:06;7.30;;;2.42;;
33987;SDS011;37428;53.580;-1.666;2023-05-29T08:53:09;10.95;;;2.72;;
33987;SDS011;37428;53.580;-1.666;2023-05-29T08:56:12;9.13;;;2.70;;
33987;SDS011;37428;53.580;-1.666;2023-05-29T08:59:14;7.10;;;2.97;;
33987;SDS011;37428;53.580;-1.666;2023-05-29T09:02:17;10.98;;;2.40;;
33987;SDS011;37428;53.580;-1.666;2023-05-29T09:05:21;8.90;;;2.65;;
33987;SDS011;37428;53.580;-1.666;2023-05-29T09:08:23;9.25;;;2.17;;
33987;SDS011;37428;53.580;-1.666;2023-05-29T09:11:26;12.13;;;2.15;;
33987;SDS011;37428;53.580;-1.666;2023-05-29T09:14:31;7.18;;;2.50;;
33987;SDS011;37428;53.580;-1.666;2023-05-29T09:17:35;11.90;;;2.67;;
33987;SDS011;37428;53.580;-1.666;2023-05-29T09:20:39;9.70;;;2.42;;
33987;SDS011;37428;53.580;-1.666;2023-05-29T09:23:41;10.52;;;2.20;;
33987;SDS011;37428;53.580;-1.666;2023-05-29T09:26:48;5.00;;;2.05;;
33987;SDS011;37428;53.580;-1.666;2023-05-29T09:29:50;4.45;;;1.95;;
33987;SDS011;37428;53.580;-1.666;2023-05-29T09:32:53;7.15;;;2.80;;
33987;SDS011;37428;53.580;-1.666;2023-05-29T09:35:56;8.82;;;2.45;;
33987;SDS011;37428;53.580;-1.666;2023-05-29T09:39:01;7.50;;;2.70;;
33987;SDS011;37428;53.580;-1.666;2023-05-29T09:42:04;9.55;;;3.13;;
33987;SDS011;37428;53.580;-1.666;2023-05-29T09:45:07;9.43;;;2.85;;
33987;SDS011;37428;53.580;-1.666;2023-05-29T09:48:12;9.25;;;2.15;;
33987;SDS011;37428;53.580;-1.666;2023-05-29T09:51:22;9.85;;;3.25;;
33987;SDS011;37428;53.580;-1.666;2023-05-29T09:54:26;10.98;;;2.63;;
33987;SDS011;37428;53.580;-1.666;2023-05-29T09:57:29;12.88;;;3.13;;
33987;SDS011;37428;53.580;-1.666;2023-05-29T10:00:32;7.15;;;2.70;;
33987;SDS011;37428;53.580;-1.666;2023-05-29T10:03:34;8.23;;;2.28;;
33987;SDS011;37428;53.580;-1.666;2023-05-29T10:06:37;10.95;;;3.13;;
33987;SDS011;37428;53.580;-1.666;2023-05-29T10:09:44;12.38;;;3.10;;
33987;SDS011;37428;53.580;-1.666;2023-05-29T10:12:50;10.25;;;2.45;;
33987;SDS011;37428;53.580;-1.666;2023-05-29T10:15:53;9.25;;;2.22;;
33987;SDS011;37428;53.580;-1.666;2023-05-29T10:18:57;14.98;;;3.50;;
33987;SDS011;37428;53.580;-1.666;2023-05-29T10:22:03;9.55;;;2.20;;
33987;SDS011;37428;53.580;-1.666;2023-05-29T10:25:07;7.88;;;2.45;;
33987;SDS011;37428;53.580;-1.666;2023-05-29T10:28:11;6.30;;;2.40;;
33987;SDS011;37428;53.580;-1.666;2023-05-29T10:31:14;7.93;;;2.15;;
33987;SDS011;37428;53.580;-1.666;2023-05-29T10:34:25;9.20;;;3.00;;
33987;SDS011;37428;53.580;-1.666;2023-05-29T10:37:36;8.40;;;3.20;;
33987;SDS011;37428;53.580;-1.666;2023-05-29T10:40:42;6.30;;;2.30;;
33987;SDS011;37428;53.580;-1.666;2023-05-29T10:43:44;10.00;;;2.72;;
33987;SDS011;37428;53.580;-1.666;2023-05-29T10:47:03;6.88;;;2.00;;
33987;SDS011;37428;53.580;-1.666;2023-05-29T10:50:06;7.05;;;2.35;;
33987;SDS011;37428;53.580;-1.666;2023-05-29T10:53:10;5.82;;;2.30;;
33987;SDS011;37428;53.580;-1.666;2023-05-29T10:56:20;7.25;;;2.30;;
33987;SDS011;37428;53.580;-1.666;2023-05-29T10:59:24;6.68;;;2.05;;
33987;SDS011;37428;53.580;-1.666;2023-05-29T11:02:27;7.93;;;2.28;;
33987;SDS011;37428;53.580;-1.666;2023-05-29T11:05:29;5.50;;;2.00;;
33987;SDS011;37428;53.580;-1.666;2023-05-29T11:15:33;9.93;;;2.38;;
33987;SDS011;37428;53.580;-1.666;2023-05-29T11:18:38;6.35;;;2.25;;
33987;SDS011;37428;53.580;-1.666;2023-05-29T11:21:49;6.80;;;2.28;;
33987;SDS011;37428;53.580;-1.666;2023-05-29T11:24:59;6.38;;;2.22;;
33987;SDS011;37428;53.580;-1.666;2023-05-29T11:28:03;5.22;;;2.17;;
33987;SDS011;37428;53.580;-1.666;2023-05-29T11:31:08;10.85;;;3.33;;
33987;SDS011;37428;53.580;-1.666;2023-05-29T11:34:14;7.10;;;2.42;;
33987;SDS011;37428;53.580;-1.666;2023-05-29T11:37:16;5.88;;;2.85;;
33987;SDS011;37428;53.580;-1.666;2023-05-29T11:40:20;6.13;;;2.50;;
33987;SDS011;37428;53.580;-1.666;2023-05-29T11:43:22;5.03;;;2.50;;
33987;SDS011;37428;53.580;-1.666;2023-05-29T11:46:25;5.00;;;1.98;;
33987;SDS011;37428;53.580;-1.666;2023-05-29T11:49:28;8.50;;;2.45;;
33987;SDS011;37428;53.580;-1.666;2023-05-29T11:52:31;7.03;;;2.20;;
33987;SDS011;37428;53.580;-1.666;2023-05-29T11:55:34;8.82;;;2.65;;
33987;SDS011;37428;53.580;-1.666;2023-05-29T11:58:37;7.90;;;2.55;;
33987;SDS011;37428;53.580;-1.666;2023-05-29T12:01:39;8.75;;;2.28;;
33987;SDS011;37428;53.580;-1.666;2023-05-29T12:04:41;5.75;;;2.47;;
33987;SDS011;37428;53.580;-1.666;2023-05-29T12:07:47;9.00;;;2.50;;
33987;SDS011;37428;53.580;-1.666;2023-05-29T12:10:52;5.18;;;2.80;;
33987;SDS011;37428;53.580;-1.666;2023-05-29T12:13:57;8.40;;;2.85;;
33987;SDS011;37428;53.580;-1.666;2023-05-29T12:17:01;6.75;;;2.35;;
33987;SDS011;37428;53.580;-1.666;2023-05-29T12:20:03;8.70;;;2.33;;
33987;SDS011;37428;53.580;-1.666;2023-05-29T12:23:09;6.22;;;2.33;;
33987;SDS011;37428;53.580;-1.666;2023-05-29T12:26:13;6.18;;;2.05;;
33987;SDS011;37428;53.580;-1.666;2023-05-29T12:29:16;8.52;;;2.30;;
33987;SDS011;37428;53.580;-1.666;2023-05-29T12:32:18;8.40;;;2.97;;
33987;SDS011;37428;53.580;-1.666;2023-05-29T12:35:21;11.95;;;2.97;;
33987;SDS011;37428;53.580;-1.666;2023-05-29T12:38:24;7.25;;;2.92;;
33987;SDS011;37428;53.580;-1.666;2023-05-29T12:41:29;4.63;;;2.08;;
33987;SDS011;37428;53.580;-1.666;2023-05-29T12:44:34;8.10;;;2.72;;
33987;SDS011;37428;53.580;-1.666;2023-05-29T12:47:44;9.30;;;2.70;;
33987;SDS011;37428;53.580;-1.666;2023-05-29T12:50:47;7.35;;;3.42;;
33987;SDS011;37428;53.580;-1.666;2023-05-29T12:53:51;9.35;;;2.67;;
33987;SDS011;37428;53.580;-1.666;2023-05-29T12:56:56;12.27;;;3.78;;
33987;SDS011;37428;53.580;-1.666;2023-05-29T13:00:01;6.13;;;2.38;;
33987;SDS011;37428;53.580;-1.666;2023-05-29T13:03:03;11.13;;;3.55;;
33987;SDS011;37428;53.580;-1.666;2023-05-29T13:06:06;9.15;;;2.78;;
33987;SDS011;37428;53.580;-1.666;2023-05-29T13:09:08;6.90;;;2.47;;
33987;SDS011;37428;53.580;-1.666;2023-05-29T13:15:14;8.82;;;1.83;;
33987;SDS011;37428;53.580;-1.666;2023-05-29T13:18:16;10.07;;;2.55;;
33987;SDS011;37428;53.580;-1.666;2023-05-29T13:21:18;8.65;;;2.85;;
33987;SDS011;37428;53.580;-1.666;2023-05-29T13:24:20;6.55;;;3.20;;
33987;SDS011;37428;53.580;-1.666;2023-05-29T13:27:24;6.03;;;2.63;;
33987;SDS011;37428;53.580;-1.666;2023-05-29T13:30:26;10.30;;;3.47;;
33987;SDS011;37428;53.580;-1.666;2023-05-29T13:33:28;8.90;;;3.70;;
33987;SDS011;37428;53.580;-1.666;2023-05-29T13:36:30;10.90;;;3.20;;
33987;SDS011;37428;53.580;-1.666;2023-05-29T13:39:32;7.50;;;2.95;;
33987;SDS011;37428;53.580;-1.666;2023-05-29T13:42:36;8.93;;;2.47;;
33987;SDS011;37428;53.580;-1.666;2023-05-29T13:45:38;5.93;;;2.38;;
33987;SDS011;37428;53.580;-1.666;2023-05-29T13:48:40;5.38;;;2.33;;
33987;SDS011;37428;53.580;-1.666;2023-05-29T13:51:42;4.80;;;1.92;;
33987;SDS011;37428;53.580;-1.666;2023-05-29T13:54:47;9.68;;;2.20;;
33987;SDS011;37428;53.580;-1.666;2023-05-29T13:57:50;8.45;;;2.38;;
33987;SDS011;37428;53.580;-1.666;2023-05-29T14:00:53;5.22;;;2.13;;
33987;SDS011;37428;53.580;-1.666;2023-05-29T14:03:55;6.55;;;2.80;;
33987;SDS011;37428;53.580;-1.666;2023-05-29T14:06:58;8.07;;;2.55;;
33987;SDS011;37428;53.580;-1.666;2023-05-29T14:10:14;7.03;;;3.58;;
33987;SDS011;37428;53.580;-1.666;2023-05-29T14:17:15;34.20;;;13.43;;
33987;SDS011;37428;53.580;-1.666;2023-05-29T14:20:23;5.43;;;3.38;;
33987;SDS011;37428;53.580;-1.666;2023-05-29T14:23:26;7.20;;;3.05;;
33987;SDS011;37428;53.580;-1.666;2023-05-29T14:26:28;6.50;;;3.05;;
33987;SDS011;37428;53.580;-1.666;2023-05-29T14:29:32;13.68;;;3.03;;
33987;SDS011;37428;53.580;-1.666;2023-05-29T14:32:34;5.45;;;2.20;;
33987;SDS011;37428;53.580;-1.666;2023-05-29T14:35:36;6.22;;;2.30;;
33987;SDS011;37428;53.580;-1.666;2023-05-29T14:38:44;9.30;;;2.42;;
33987;SDS011;37428;53.580;-1.666;2023-05-29T14:45:17;6.53;;;2.80;;
33987;SDS011;37428;53.580;-1.666;2023-05-29T14:48:37;7.32;;;2.97;;
33987;SDS011;37428;53.580;-1.666;2023-05-29T14:51:55;9.25;;;3.00;;
33987;SDS011;37428;53.580;-1.666;2023-05-29T14:55:07;9.35;;;3.08;;
33987;SDS011;37428;53.580;-1.666;2023-05-29T14:58:13;5.55;;;2.42;;
33987;SDS011;37428;53.580;-1.666;2023-05-29T15:01:18;7.65;;;2.45;;
33987;SDS011;37428;53.580;-1.666;2023-05-29T15:04:21;6.20;;;2.88;;
33987;SDS011;37428;53.580;-1.666;2023-05-29T15:07:37;7.43;;;2.33;;
33987;SDS011;37428;53.580;-1.666;2023-05-29T15:10:39;9.20;;;3.10;;
33987;SDS011;37428;53.580;-1.666;2023-05-29T15:15:17;9.68;;;3.35;;
33987;SDS011;37428;53.580;-1.666;2023-05-29T15:20:49;11.00;;;4.55;;
33987;SDS011;37428;53.580;-1.666;2023-05-29T15:24:10;5.28;;;2.35;;
33987;SDS011;37428;53.580;-1.666;2023-05-29T15:30:27;8.40;;;2.30;;
33987;SDS011;37428;53.580;-1.666;2023-05-29T15:35:07;9.50;;;4.30;;
33987;SDS011;37428;53.580;-1.666;2023-05-29T15:37:10;8.23;;;3.22;;
33987;SDS011;37428;53.580;-1.666;2023-05-29T15:40:19;11.65;;;4.35;;
33987;SDS011;37428;53.580;-1.666;2023-05-29T15:43:22;14.50;;;4.68;;
33987;SDS011;37428;53.580;-1.666;2023-05-29T15:46:25;12.23;;;2.70;;
33987;SDS011;37428;53.580;-1.666;2023-05-29T15:49:31;7.72;;;3.08;;
33987;SDS011;37428;53.580;-1.666;2023-05-29T15:52:36;11.10;;;3.63;;
33987;SDS011;37428;53.580;-1.666;2023-05-29T15:55:38;6.43;;;2.67;;
33987;SDS011;37428;53.580;-1.666;2023-05-29T15:59:17;10.88;;;3.22;;
33987;SDS011;37428;53.580;-1.666;2023-05-29T16:02:25;9.77;;;2.95;;
33987;SDS011;37428;53.580;-1.666;2023-05-29T16:05:29;6.35;;;3.22;;
33987;SDS011;37428;53.580;-1.666;2023-05-29T16:08:33;7.45;;;2.40;;
33987;SDS011;37428;53.580;-1.666;2023-05-29T16:11:55;10.20;;;2.83;;
33987;SDS011;37428;53.580;-1.666;2023-05-29T16:15:03;11.07;;;3.60;;
33987;SDS011;37428;53.580;-1.666;2023-05-29T16:18:07;11.15;;;3.70;;
33987;SDS011;37428;53.580;-1.666;2023-05-29T16:25:16;12.05;;;2.90;;
33987;SDS011;37428;53.580;-1.666;2023-05-29T16:28:23;8.60;;;2.65;;
33987;SDS011;37428;53.580;-1.666;2023-05-29T16:31:27;11.63;;;3.30;;
33987;SDS011;37428;53.580;-1.666;2023-05-29T16:37:57;11.85;;;3.00;;
33987;SDS011;37428;53.580;-1.666;2023-05-29T16:41:24;10.40;;;3.00;;
33987;SDS011;37428;53.580;-1.666;2023-05-29T16:44:42;4.40;;;2.58;;
33987;SDS011;37428;53.580;-1.666;2023-05-29T16:48:01;9.13;;;2.95;;
33987;SDS011;37428;53.580;-1.666;2023-05-29T16:51:25;8.10;;;2.40;;
33987;SDS011;37428;53.580;-1.666;2023-05-29T16:54:44;8.88;;;2.97;;
33987;SDS011;37428;53.580;-1.666;2023-05-29T16:57:49;12.52;;;3.17;;
33987;SDS011;37428;53.580;-1.666;2023-05-29T17:01:05;13.45;;;2.58;;
33987;SDS011;37428;53.580;-1.666;2023-05-29T17:04:16;13.80;;;3.25;;
33987;SDS011;37428;53.580;-1.666;2023-05-29T17:07:19;11.65;;;3.10;;
33987;SDS011;37428;53.580;-1.666;2023-05-29T17:10:41;17.60;;;3.90;;
33987;SDS011;37428;53.580;-1.666;2023-05-29T17:17:39;9.82;;;2.80;;
33987;SDS011;37428;53.580;-1.666;2023-05-29T17:21:06;16.75;;;4.32;;
33987;SDS011;37428;53.580;-1.666;2023-05-29T17:24:39;11.95;;;3.72;;
33987;SDS011;37428;53.580;-1.666;2023-05-29T17:27:44;10.73;;;3.30;;
33987;SDS011;37428;53.580;-1.666;2023-05-29T17:31:13;9.50;;;4.07;;
33987;SDS011;37428;53.580;-1.666;2023-05-29T17:38:14;15.95;;;4.05;;
33987;SDS011;37428;53.580;-1.666;2023-05-29T17:41:35;14.43;;;3.60;;
33987;SDS011;37428;53.580;-1.666;2023-05-29T17:45:00;9.02;;;2.53;;
33987;SDS011;37428;53.580;-1.666;2023-05-29T17:48:18;13.73;;;2.90;;
33987;SDS011;37428;53.580;-1.666;2023-05-29T17:51:35;18.05;;;3.25;;
33987;SDS011;37428;53.580;-1.666;2023-05-29T17:56:34;11.60;;;2.90;;
33987;SDS011;37428;53.580;-1.666;2023-05-29T17:58:47;12.63;;;3.05;;
33987;SDS011;37428;53.580;-1.666;2023-05-29T18:13:24;9.68;;;2.83;;
33987;SDS011;37428;53.580;-1.666;2023-05-29T18:16:40;11.40;;;4.05;;
33987;SDS011;37428;53.580;-1.666;2023-05-29T18:20:06;12.35;;;2.47;;
33987;SDS011;37428;53.580;-1.666;2023-05-29T18:23:42;10.15;;;2.80;;
33987;SDS011;37428;53.580;-1.666;2023-05-29T18:26:47;10.43;;;2.78;;
33987;SDS011;37428;53.580;-1.666;2023-05-29T18:33:39;11.40;;;2.40;;
33987;SDS011;37428;53.580;-1.666;2023-05-29T18:37:09;15.50;;;3.55;;
33987;SDS011;37428;53.580;-1.666;2023-05-29T18:40:30;11.15;;;3.13;;
33987;SDS011;37428;53.580;-1.666;2023-05-29T18:43:59;13.63;;;3.40;;
33987;SDS011;37428;53.580;-1.666;2023-05-29T18:51:18;17.38;;;2.92;;
33987;SDS011;37428;53.580;-1.666;2023-05-29T18:54:42;12.13;;;2.40;;
33987;SDS011;37428;53.580;-1.666;2023-05-29T18:57:55;9.32;;;2.50;;
33987;SDS011;37428;53.580;-1.666;2023-05-29T19:01:12;10.88;;;3.20;;
33987;SDS011;37428;53.580;-1.666;2023-05-29T19:12:21;9.38;;;2.88;;
33987;SDS011;37428;53.580;-1.666;2023-05-29T19:15:30;13.05;;;3.33;;
33987;SDS011;37428;53.580;-1.666;2023-05-29T19:18:41;13.70;;;3.03;;
33987;SDS011;37428;53.580;-1.666;2023-05-29T19:22:44;11.02;;;3.38;;
33987;SDS011;37428;53.580;-1.666;2023-05-29T19:25:30;12.73;;;3.13;;
33987;SDS011;37428;53.580;-1.666;2023-05-29T19:28:34;13.93;;;3.80;;
33987;SDS011;37428;53.580;-1.666;2023-05-29T19:31:59;11.73;;;2.60;;
33987;SDS011;37428;53.580;-1.666;2023-05-29T19:35:22;13.00;;;3.25;;
33987;SDS011;37428;53.580;-1.666;2023-05-29T19:38:36;16.77;;;3.90;;
33987;SDS011;37428;53.580;-1.666;2023-05-29T19:41:54;17.58;;;3.60;;
33987;SDS011;37428;53.580;-1.666;2023-05-29T19:45:10;14.05;;;4.70;;
33987;SDS011;37428;53.580;-1.666;2023-05-29T19:48:34;12.07;;;2.95;;
33987;SDS011;37428;53.580;-1.666;2023-05-29T19:51:58;17.25;;;3.90;;
33987;SDS011;37428;53.580;-1.666;2023-05-29T19:55:18;14.20;;;3.67;;
33987;SDS011;37428;53.580;-1.666;2023-05-29T19:58:23;13.70;;;3.88;;
33987;SDS011;37428;53.580;-1.666;2023-05-29T20:05:01;13.18;;;3.03;;
33987;SDS011;37428;53.580;-1.666;2023-05-29T20:08:03;13.60;;;3.47;;
33987;SDS011;37428;53.580;-1.666;2023-05-29T20:11:12;16.20;;;3.45;;
33987;SDS011;37428;53.580;-1.666;2023-05-29T20:14:29;15.38;;;3.90;;
33987;SDS011;37428;53.580;-1.666;2023-05-29T20:17:39;11.98;;;3.30;;
33987;SDS011;37428;53.580;-1.666;2023-05-29T20:20:49;16.50;;;3.83;;
33987;SDS011;37428;53.580;-1.666;2023-05-29T20:23:58;13.32;;;4.05;;
33987;SDS011;37428;53.580;-1.666;2023-05-29T20:27:00;18.13;;;4.55;;
33987;SDS011;37428;53.580;-1.666;2023-05-29T20:31:44;20.63;;;5.68;;
33987;SDS011;37428;53.580;-1.666;2023-05-29T20:37:09;13.55;;;4.07;;
33987;SDS011;37428;53.580;-1.666;2023-05-29T20:40:12;17.20;;;4.90;;
33987;SDS011;37428;53.580;-1.666;2023-05-29T20:43:45;22.58;;;7.13;;
33987;SDS011;37428;53.580;-1.666;2023-05-29T20:54:14;16.73;;;4.75;;
33987;SDS011;37428;53.580;-1.666;2023-05-29T20:57:25;14.27;;;4.40;;